Time;durP1;ratioP1;P1;durP2;ratioP2;P2;SDS_P1;SDS_P2;PMS_P1;PMS_P2;Temp;Humidity;BMP_temperature;BMP_pressure;BME280_temperature;BME280_humidity;BME280_pressure;Samples;Min_cycle;Max_cycle;Signal;HPM_P1;HPM_P2
2021/12/31 00:00:34;;;;;;;62.75;42.28;;;;;;;6.72;100.00;98993.78;2087596;28;20285;-76
2021/12/31 00:01:37;;;;;;;66.38;42.50;;;;;;;6.80;100.00;99001.19;2088590;28;20230;-76
2021/12/31 00:02:39;;;;;;;65.55;43.20;;;;;;;6.85;100.00;99012.81;2088189;28;20233;-76
2021/12/31 00:03:43;;;;;;;61.80;42.53;;;;;;;6.94;100.00;99021.78;2088559;28;20229;-77
2021/12/31 00:04:45;;;;;;;66.65;42.30;;;;;;;7.00;100.00;99002.94;2087564;28;20237;-76
2021/12/31 00:05:46;;;;;;;56.58;41.67;;;;;;;7.03;100.00;98998.94;2079249;28;20261;-76
2021/12/31 00:06:47;;;;;;;60.13;41.92;;;;;;;7.01;100.00;99004.50;2087779;28;20704;-76
2021/12/31 00:07:49;;;;;;;59.70;41.87;;;;;;;7.09;100.00;99008.47;2087338;28;20557;-76
2021/12/31 00:08:50;;;;;;;61.63;41.85;;;;;;;7.09;100.00;99006.59;2087661;28;20688;-76
2021/12/31 00:09:52;;;;;;;52.70;39.60;;;;;;;7.21;100.00;99006.28;2087725;28;20623;-76
2021/12/31 00:10:59;;;;;;;56.78;40.10;;;;;;;7.22;100.00;99013.16;2087298;28;20230;-76
2021/12/31 00:12:02;;;;;;;48.42;37.90;;;;;;;7.27;100.00;99007.81;2080298;28;20265;-76
2021/12/31 00:13:03;;;;;;;50.42;37.35;;;;;;;7.28;100.00;99008.59;2087602;28;20225;-76
2021/12/31 00:14:05;;;;;;;44.77;36.10;;;;;;;7.32;100.00;99012.31;2079207;28;20223;-76
2021/12/31 00:15:07;;;;;;;47.08;36.50;;;;;;;7.39;100.00;99012.00;2079473;28;20223;-76
2021/12/31 00:16:09;;;;;;;43.38;34.40;;;;;;;7.39;100.00;99015.44;2087413;28;20226;-76
2021/12/31 00:17:09;;;;;;;46.75;35.63;;;;;;;7.41;100.00;99018.63;2088354;28;20230;-76
2021/12/31 00:18:11;;;;;;;50.83;36.15;;;;;;;7.42;100.00;99014.88;2088340;28;20733;-76
2021/12/31 00:19:13;;;;;;;46.97;37.10;;;;;;;7.41;100.00;99021.28;2088408;28;20227;-76
2021/12/31 00:20:18;;;;;;;46.88;35.60;;;;;;;7.43;100.00;99016.47;2087337;28;20214;-76
2021/12/31 00:21:20;;;;;;;45.65;34.35;;;;;;;7.46;100.00;99017.78;2087555;28;20357;-76
2021/12/31 00:22:46;;;;;;;43.08;35.22;;;;;;;7.45;100.00;99018.84;2087564;28;20233;-76
2021/12/31 00:23:48;;;;;;;42.17;34.80;;;;;;;7.50;100.00;99018.81;2087458;28;20309;-76
2021/12/31 00:24:48;;;;;;;46.35;36.10;;;;;;;7.46;100.00;99018.56;2087806;28;20230;-76
2021/12/31 00:25:50;;;;;;;40.60;35.50;;;;;;;7.43;100.00;99018.34;2087486;28;20223;-76
2021/12/31 00:26:51;;;;;;;41.20;35.17;;;;;;;7.47;100.00;99020.19;2087357;28;20230;-76
2021/12/31 00:27:53;;;;;;;41.50;34.88;;;;;;;7.47;100.00;99019.34;2087921;28;20253;-76
2021/12/31 00:28:55;;;;;;;44.22;34.25;;;;;;;7.50;100.00;99018.81;2088155;28;20261;-76
2021/12/31 00:29:56;;;;;;;41.58;34.33;;;;;;;7.49;100.00;99023.34;2087235;28;20260;-76
2021/12/31 00:30:57;;;;;;;41.50;33.27;;;;;;;7.52;100.00;99016.69;2087507;28;20269;-76
2021/12/31 00:32:00;;;;;;;41.92;33.60;;;;;;;7.54;100.00;99025.16;2087277;28;20685;-76
2021/12/31 00:33:02;;;;;;;42.30;33.63;;;;;;;7.52;100.00;99024.63;2079460;28;20230;-76
2021/12/31 00:34:03;;;;;;;39.22;34.22;;;;;;;7.51;100.00;99023.84;2087453;28;20242;-76
2021/12/31 00:35:07;;;;;;;41.77;34.40;;;;;;;7.53;100.00;99027.00;2087549;28;20227;-76
2021/12/31 00:36:09;;;;;;;39.35;34.30;;;;;;;7.54;100.00;99027.81;2086885;28;20214;-76
2021/12/31 00:37:10;;;;;;;40.47;34.25;;;;;;;7.53;100.00;99029.66;2079080;28;20342;-76
2021/12/31 00:38:11;;;;;;;36.30;32.37;;;;;;;7.56;100.00;99033.66;2079192;28;20302;-75
2021/12/31 00:39:12;;;;;;;36.92;31.90;;;;;;;7.61;100.00;99041.56;2087427;28;20333;-76
2021/12/31 00:40:16;;;;;;;39.17;32.20;;;;;;;7.60;100.00;99029.38;2087286;28;20222;-76
2021/12/31 00:41:18;;;;;;;38.90;32.65;;;;;;;7.59;100.00;99030.44;2079447;28;20229;-76
2021/12/31 00:42:18;;;;;;;35.88;31.95;;;;;;;7.61;100.00;99028.28;2079192;28;20222;-76
2021/12/31 00:43:20;;;;;;;37.83;33.40;;;;;;;7.66;100.00;99038.88;2087355;28;20305;-76
2021/12/31 00:44:21;;;;;;;37.05;33.08;;;;;;;7.65;100.00;99039.97;2087457;28;20227;-76
2021/12/31 00:45:25;;;;;;;38.40;33.40;;;;;;;7.65;100.00;99037.31;2087231;28;20307;-76
2021/12/31 00:46:26;;;;;;;37.22;32.60;;;;;;;7.70;100.00;99047.88;2087768;28;20227;-75
2021/12/31 00:47:27;;;;;;;35.73;31.80;;;;;;;7.72;100.00;99047.59;2087330;28;20755;-76
2021/12/31 00:48:29;;;;;;;38.28;33.35;;;;;;;7.74;100.00;99046.25;2079124;28;20231;-76
2021/12/31 00:49:30;;;;;;;36.00;32.10;;;;;;;7.75;100.00;99047.84;2079020;28;20706;-76
2021/12/31 00:50:33;;;;;;;38.20;32.27;;;;;;;7.77;100.00;99051.00;2087423;28;20722;-75
2021/12/31 00:51:36;;;;;;;35.97;32.22;;;;;;;7.81;100.00;99045.94;2087964;28;20226;-75
2021/12/31 00:52:38;;;;;;;36.15;32.42;;;;;;;7.83;100.00;99038.50;2095204;28;20237;-75
2021/12/31 00:53:40;;;;;;;33.97;30.38;;;;;;;7.86;100.00;99037.94;2087444;28;20214;-76
2021/12/31 00:54:41;;;;;;;33.92;30.42;;;;;;;7.88;100.00;99043.75;2087272;28;20229;-76
2021/12/31 00:55:43;;;;;;;33.97;30.47;;;;;;;7.94;100.00;99050.63;2087294;28;20732;-76
2021/12/31 00:56:44;;;;;;;35.28;31.73;;;;;;;7.88;100.00;99039.22;2087066;28;20223;-75
2021/12/31 00:57:45;;;;;;;35.55;31.92;;;;;;;7.87;100.00;99034.19;2087148;28;20226;-75
2021/12/31 00:58:46;;;;;;;33.05;29.85;;;;;;;7.88;100.00;99035.78;2087345;28;20219;-76
2021/12/31 00:59:50;;;;;;;34.30;30.70;;;;;;;7.85;100.00;99031.03;2087279;28;20223;-76
2021/12/31 01:00:52;;;;;;;34.35;30.75;;;;;;;7.89;100.00;99032.84;2087438;28;20650;-76
2021/12/31 01:01:52;;;;;;;34.28;30.85;;;;;;;7.90;100.00;99047.69;2087687;28;20230;-76
2021/12/31 01:02:54;;;;;;;31.40;28.10;;;;;;;7.90;100.00;99045.03;2087238;28;20222;-76
2021/12/31 01:03:55;;;;;;;34.50;30.90;;;;;;;7.96;100.00;99037.03;2087100;28;20226;-75
2021/12/31 01:04:57;;;;;;;34.27;30.80;;;;;;;7.97;100.00;99038.63;2087152;28;20302;-76
2021/12/31 01:06:00;;;;;;;35.08;31.58;;;;;;;7.92;100.00;99042.94;2079016;28;20231;-76
2021/12/31 01:07:03;;;;;;;35.10;31.50;;;;;;;7.92;100.00;99039.47;2087359;28;20631;-76
2021/12/31 01:08:05;;;;;;;35.08;31.48;;;;;;;7.88;100.00;99041.88;2087858;28;20230;-76
2021/12/31 01:09:06;;;;;;;35.28;31.92;;;;;;;7.91;100.00;99045.88;2087309;28;20218;-76
2021/12/31 01:10:12;;;;;;;36.73;33.23;;;;;;;7.96;100.00;99039.69;2086880;28;20237;-76
2021/12/31 01:11:14;;;;;;;34.90;31.38;;;;;;;7.92;100.00;99044.78;2087120;28;20306;-76
2021/12/31 01:12:15;;;;;;;34.83;31.17;;;;;;;7.94;100.00;99048.75;2087050;28;20227;-75
2021/12/31 01:13:26;;;;;;;33.80;30.52;;;;;;;7.97;100.00;99051.91;2087215;28;20236;-75
2021/12/31 01:14:32;;;;;;;33.85;30.52;;;;;;;7.97;100.00;99049.25;2086757;28;20250;-75
2021/12/31 01:15:38;;;;;;;33.47;29.92;;;;;;;7.98;100.00;99050.84;2087110;28;20247;-76
2021/12/31 01:16:45;;;;;;;32.42;29.02;;;;;;;7.94;100.00;99048.75;2094909;28;20233;-76
2021/12/31 01:18:13;;;;;;;33.03;29.70;;;;;;;8.00;100.00;99056.69;2087124;28;20222;-75
2021/12/31 01:20:33;;;;;;;34.78;31.15;;;;;;;7.97;100.00;99049.25;2086797;28;20580;-75
2021/12/31 01:21:36;;;;;;;34.90;31.33;;;;;;;8.01;100.00;99051.09;2087352;28;20748;-75
2021/12/31 01:22:38;;;;;;;34.78;31.38;;;;;;;8.07;100.00;99065.09;2078460;28;20627;-75
2021/12/31 01:23:38;;;;;;;34.83;31.38;;;;;;;8.02;100.00;99057.97;2087064;28;20226;-75
2021/12/31 01:24:40;;;;;;;35.03;31.60;;;;;;;8.04;100.00;99058.50;2087284;28;20302;-75
2021/12/31 01:25:42;;;;;;;35.55;32.08;;;;;;;8.05;100.00;99057.41;2087174;28;20226;-75
2021/12/31 01:26:43;;;;;;;33.72;30.33;;;;;;;8.03;100.00;99045.50;2086998;28;20567;-76
2021/12/31 01:27:46;;;;;;;33.40;29.95;;;;;;;8.02;100.00;99051.88;2078956;28;20246;-75
2021/12/31 01:28:46;;;;;;;32.88;29.67;;;;;;;8.01;100.00;99055.63;2078838;28;20304;-75
2021/12/31 01:29:48;;;;;;;32.97;29.47;;;;;;;8.03;100.00;99053.47;2079075;28;20229;-75
2021/12/31 01:30:50;;;;;;;33.15;29.75;;;;;;;8.04;100.00;99052.38;2078746;28;20216;-75
2021/12/31 01:31:53;;;;;;;34.50;30.83;;;;;;;8.03;100.00;99059.56;2086806;28;20218;-76
2021/12/31 01:32:57;;;;;;;33.40;29.33;;;;;;;8.05;100.00;99052.09;2087305;28;20284;-75
2021/12/31 01:33:59;;;;;;;33.13;29.75;;;;;;;8.06;100.00;99053.69;2087752;28;20669;-76
2021/12/31 01:35:01;;;;;;;33.65;30.25;;;;;;;8.08;100.00;99054.22;2087789;28;20229;-75
2021/12/31 01:36:02;;;;;;;34.30;30.80;;;;;;;8.06;100.00;99053.69;2087754;28;20222;-75
2021/12/31 01:37:05;;;;;;;35.93;32.13;;;;;;;8.09;100.00;99060.31;2087014;28;20298;-75
2021/12/31 01:38:06;;;;;;;33.70;30.23;;;;;;;8.14;100.00;99050.44;2078899;28;20629;-76
2021/12/31 01:39:08;;;;;;;33.93;30.53;;;;;;;8.07;100.00;99060.56;2086515;28;20223;-75
2021/12/31 01:40:10;;;;;;;34.03;30.52;;;;;;;8.13;100.00;99053.38;2095229;28;20218;-76
2021/12/31 01:41:12;;;;;;;33.90;29.88;;;;;;;8.13;100.00;99056.81;2095028;28;20275;-76
2021/12/31 01:42:13;;;;;;;34.28;30.65;;;;;;;8.11;100.00;99061.63;2086799;28;20222;-76
2021/12/31 01:43:15;;;;;;;33.65;30.25;;;;;;;8.13;100.00;99066.66;2087078;28;20222;-75
2021/12/31 01:44:16;;;;;;;34.40;30.90;;;;;;;8.09;100.00;99062.97;2087673;28;20222;-75
2021/12/31 01:45:20;;;;;;;33.50;30.03;;;;;;;8.10;100.00;99060.03;2087174;28;20297;-75
2021/12/31 01:46:21;;;;;;;34.50;30.85;;;;;;;8.13;100.00;99070.09;2087126;28;20685;-75
2021/12/31 01:47:33;;;;;;;34.20;30.63;;;;;;;8.15;100.00;99061.84;2086542;28;20231;-75
2021/12/31 01:48:37;;;;;;;34.22;30.77;;;;;;;8.14;100.00;99071.69;2086989;28;20234;-75
2021/12/31 01:49:41;;;;;;;35.95;32.40;;;;;;;8.13;100.00;99066.66;2086528;28;20584;-75
2021/12/31 01:50:43;;;;;;;36.47;32.67;;;;;;;8.13;100.00;99069.31;2086874;28;20679;-75
2021/12/31 01:51:43;;;;;;;34.78;31.15;;;;;;;8.19;100.00;99069.00;2086828;28;20226;-75
2021/12/31 01:52:46;;;;;;;35.07;31.37;;;;;;;8.16;100.00;99066.09;2086939;28;20310;-76
2021/12/31 01:53:48;;;;;;;36.35;31.92;;;;;;;8.13;100.00;99066.66;2086793;28;20591;-75
2021/12/31 01:54:51;;;;;;;34.80;31.27;;;;;;;8.11;100.00;99072.25;2086906;28;20756;-75
2021/12/31 01:55:55;;;;;;;35.55;31.73;;;;;;;8.14;100.00;99079.66;2086677;28;20610;-75
2021/12/31 01:56:57;;;;;;;35.95;32.17;;;;;;;8.14;100.00;99071.69;2086611;28;20700;-75
2021/12/31 01:57:59;;;;;;;36.00;32.30;;;;;;;8.12;100.00;99075.69;2086668;28;20227;-75
2021/12/31 01:59:00;;;;;;;35.92;32.15;;;;;;;8.14;100.00;99077.00;2086202;28;20226;-76
2021/12/31 02:00:03;;;;;;;36.47;32.53;;;;;;;8.11;100.00;99074.13;2086937;28;20225;-75
2021/12/31 02:01:07;;;;;;;37.22;33.20;;;;;;;8.14;100.00;99073.56;2086941;28;20246;-75
2021/12/31 02:02:09;;;;;;;38.60;34.50;;;;;;;8.11;100.00;99066.16;2086279;28;20221;-75
2021/12/31 02:03:12;;;;;;;38.95;34.78;;;;;;;8.12;100.00;99075.69;2078521;28;20736;-75
2021/12/31 02:04:13;;;;;;;37.83;33.72;;;;;;;8.13;100.00;99074.63;2078542;28;20697;-75
2021/12/31 02:05:15;;;;;;;37.53;33.53;;;;;;;8.15;100.00;99075.13;2086732;28;20542;-75
2021/12/31 02:06:16;;;;;;;37.30;33.47;;;;;;;8.15;100.00;99070.59;2086947;28;20696;-75
2021/12/31 02:07:18;;;;;;;36.97;32.87;;;;;;;8.13;100.00;99074.63;2086743;28;20656;-76
2021/12/31 02:08:20;;;;;;;36.70;32.78;;;;;;;8.12;100.00;99067.72;2087510;28;20565;-75
2021/12/31 02:09:22;;;;;;;35.75;31.88;;;;;;;8.10;100.00;99069.88;2086621;28;20272;-75
2021/12/31 02:10:24;;;;;;;37.38;33.42;;;;;;;8.12;100.00;99065.88;2078096;28;20234;-76
2021/12/31 02:11:24;;;;;;;38.85;33.38;;;;;;;8.13;100.00;99072.75;2086497;28;20273;-75
2021/12/31 02:12:26;;;;;;;38.80;34.43;;;;;;;8.11;100.00;99063.50;2087487;28;20236;-75
2021/12/31 02:13:28;;;;;;;37.17;33.25;;;;;;;8.08;100.00;99064.03;2087559;28;20230;-75
2021/12/31 02:14:31;;;;;;;37.20;33.22;;;;;;;8.11;100.00;99069.59;2086537;28;20218;-76
2021/12/31 02:15:32;;;;;;;40.00;33.63;;;;;;;8.18;100.00;99077.25;2086734;28;20218;-75
2021/12/31 02:16:34;;;;;;;38.53;34.63;;;;;;;8.16;100.00;99064.22;2087563;28;20257;-76
2021/12/31 02:17:35;;;;;;;38.30;34.38;;;;;;;8.19;100.00;99068.19;2086926;28;20219;-76
2021/12/31 02:18:36;;;;;;;40.40;36.10;;;;;;;8.12;100.00;99073.03;2086738;28;20214;-75
2021/12/31 02:19:38;;;;;;;37.30;33.47;;;;;;;8.14;100.00;99070.88;2087057;28;20700;-75
2021/12/31 02:20:45;;;;;;;36.80;32.92;;;;;;;8.13;100.00;99066.66;2087374;28;20669;-75
2021/12/31 02:21:47;;;;;;;37.78;33.67;;;;;;;8.08;100.00;99070.16;2087378;28;20699;-75
2021/12/31 02:22:55;;;;;;;38.65;34.45;;;;;;;8.12;100.00;99073.84;2087446;28;20245;-75
2021/12/31 02:24:02;;;;;;;36.83;32.95;;;;;;;8.13;100.00;99064.00;2094319;28;20583;-76
2021/12/31 02:25:04;;;;;;;38.13;33.45;;;;;;;8.10;100.00;99061.91;2094189;28;20229;-75
2021/12/31 02:26:08;;;;;;;39.83;34.15;;;;;;;8.09;100.00;99055.00;2086892;28;20219;-75
2021/12/31 02:27:09;;;;;;;38.90;34.95;;;;;;;8.13;100.00;99064.00;2078286;28;20321;-75
2021/12/31 02:28:10;;;;;;;39.85;35.63;;;;;;;8.11;100.00;99060.84;2078402;28;20250;-75
2021/12/31 02:29:13;;;;;;;41.30;36.30;;;;;;;8.10;100.00;99054.72;2086700;28;20226;-75
2021/12/31 02:30:15;;;;;;;37.47;33.35;;;;;;;8.11;100.00;99058.19;2086503;28;20222;-75
2021/12/31 02:31:17;;;;;;;41.85;34.65;;;;;;;8.13;100.00;99061.34;2086281;28;20268;-76
2021/12/31 02:32:18;;;;;;;38.28;34.13;;;;;;;8.17;100.00;99057.84;2087241;28;20226;-75
2021/12/31 02:33:20;;;;;;;40.40;34.97;;;;;;;8.19;100.00;99057.56;2086042;28;20789;-75
2021/12/31 02:34:21;;;;;;;37.42;33.38;;;;;;;8.15;100.00;99059.97;2086655;28;20238;-75
2021/12/31 02:35:22;;;;;;;37.90;33.42;;;;;;;8.15;100.00;99057.31;2086573;28;20227;-75
2021/12/31 02:36:25;;;;;;;38.40;34.38;;;;;;;8.16;100.00;99074.84;2086294;28;20223;-75
2021/12/31 02:37:29;;;;;;;38.00;34.03;;;;;;;8.14;100.00;99054.94;2086383;28;20234;-75
2021/12/31 02:38:29;;;;;;;37.97;33.92;;;;;;;8.12;100.00;99065.06;2086575;28;20222;-76
2021/12/31 02:39:31;;;;;;;38.97;32.53;;;;;;;8.17;100.00;99071.16;2087262;28;20297;-75
2021/12/31 02:40:33;;;;;;;37.40;33.30;;;;;;;8.14;100.00;99071.69;2086477;28;20246;-76
2021/12/31 02:41:35;;;;;;;35.97;32.30;;;;;;;8.17;100.00;99070.34;2078403;28;20231;-75
2021/12/31 02:42:37;;;;;;;40.78;36.00;;;;;;;8.17;100.00;99071.16;2078441;28;20674;-76
2021/12/31 02:43:42;;;;;;;39.88;35.45;;;;;;;8.12;100.00;99075.69;2077951;28;20269;-75
2021/12/31 02:44:43;;;;;;;36.92;33.22;;;;;;;8.21;100.00;99076.69;2086530;28;20696;-75
2021/12/31 02:45:45;;;;;;;40.80;34.88;;;;;;;8.18;100.00;99077.25;2086522;28;20229;-75
2021/12/31 02:46:45;;;;;;;38.35;34.40;;;;;;;8.16;100.00;99063.44;2086999;28;20214;-76
2021/12/31 02:47:47;;;;;;;39.43;33.57;;;;;;;8.15;100.00;99065.28;2087171;28;20233;-75
2021/12/31 02:48:55;;;;;;;37.00;32.55;;;;;;;8.15;100.00;99064.50;2086256;28;20229;-75
2021/12/31 02:49:57;;;;;;;38.88;34.38;;;;;;;8.14;100.00;99061.06;2086244;28;20234;-76
2021/12/31 02:51:00;;;;;;;36.65;32.75;;;;;;;8.15;100.00;99069.81;2086557;28;20223;-75
2021/12/31 02:52:04;;;;;;;34.97;31.27;;;;;;;8.16;100.00;99074.84;2086372;28;20673;-75
2021/12/31 02:53:07;;;;;;;37.03;31.85;;;;;;;8.18;100.00;99072.72;2086407;28;20736;-76
2021/12/31 02:54:10;;;;;;;36.28;32.15;;;;;;;8.13;100.00;99066.66;2086732;28;20238;-76
2021/12/31 02:55:12;;;;;;;40.25;33.80;;;;;;;8.12;100.00;99076.50;2087133;28;20227;-76
2021/12/31 02:56:16;;;;;;;38.80;34.63;;;;;;;8.08;100.00;99066.69;2086198;28;20275;-76
2021/12/31 02:57:20;;;;;;;38.97;34.83;;;;;;;8.12;100.00;99065.88;2078603;28;20235;-75
2021/12/31 02:58:22;;;;;;;39.03;34.83;;;;;;;8.14;100.00;99077.00;2086426;28;20230;-75
2021/12/31 02:59:23;;;;;;;39.55;35.13;;;;;;;8.13;100.00;99067.44;2094067;28;20626;-75
2021/12/31 03:00:26;;;;;;;38.43;34.30;;;;;;;8.14;100.00;99066.38;2086240;28;20226;-76
2021/12/31 03:01:28;;;;;;;37.38;33.47;;;;;;;8.14;100.00;99070.88;2086395;28;20234;-76
2021/12/31 03:02:29;;;;;;;38.90;34.80;;;;;;;8.14;100.00;99055.75;2086308;28;20214;-75
2021/12/31 03:03:35;;;;;;;38.85;34.58;;;;;;;8.16;100.00;99068.75;2086424;28;20309;-76
2021/12/31 03:04:38;;;;;;;37.97;33.97;;;;;;;8.16;100.00;99071.41;2087190;28;20222;-75
2021/12/31 03:05:41;;;;;;;42.25;35.80;;;;;;;8.17;100.00;99076.47;2086688;28;20305;-76
2021/12/31 03:06:42;;;;;;;39.05;34.80;;;;;;;8.18;100.00;99072.72;2087214;28;20279;-76
2021/12/31 03:07:47;;;;;;;37.57;33.40;;;;;;;8.17;100.00;99062.38;2086116;28;20775;-76
2021/12/31 03:08:48;;;;;;;37.05;32.78;;;;;;;8.20;100.00;99062.59;2086268;28;20219;-76
2021/12/31 03:09:51;;;;;;;39.63;35.67;;;;;;;8.20;100.00;99070.56;2086089;28;20246;-76
2021/12/31 03:10:53;;;;;;;39.95;35.72;;;;;;;8.18;100.00;99064.75;2086338;28;20762;-76
2021/12/31 03:11:57;;;;;;;41.88;37.38;;;;;;;8.21;100.00;99068.72;2077962;28;20239;-76
2021/12/31 03:12:58;;;;;;;43.28;38.72;;;;;;;8.21;100.00;99082.00;2078314;28;20230;-76
2021/12/31 03:14:00;;;;;;;41.78;37.42;;;;;;;8.22;100.00;99083.56;2086401;28;20219;-75
2021/12/31 03:15:01;;;;;;;42.65;38.22;;;;;;;8.21;100.00;99066.06;2086139;28;20269;-76
2021/12/31 03:16:03;;;;;;;42.63;38.03;;;;;;;8.22;100.00;99076.41;2086440;28;20221;-76
2021/12/31 03:17:04;;;;;;;43.13;38.55;;;;;;;8.23;100.00;99069.22;2086994;28;20305;-76
2021/12/31 03:18:07;;;;;;;41.97;37.58;;;;;;;8.25;100.00;99077.69;2086118;28;20245;-76
2021/12/31 03:19:08;;;;;;;41.55;37.10;;;;;;;8.27;100.00;99078.22;2077871;28;20273;-75
2021/12/31 03:20:13;;;;;;;39.97;35.63;;;;;;;8.28;100.00;99066.53;2086369;28;20276;-75
2021/12/31 03:21:21;;;;;;;41.42;37.05;;;;;;;8.28;100.00;99077.16;2086910;28;20230;-76
2021/12/31 03:22:25;;;;;;;42.20;37.67;;;;;;;8.29;100.00;99078.75;2087000;28;20735;-76
2021/12/31 03:23:28;;;;;;;40.97;36.00;;;;;;;8.33;100.00;99078.97;2086167;28;20219;-75
2021/12/31 03:24:32;;;;;;;40.15;34.65;;;;;;;8.35;100.00;99082.97;2086280;28;20627;-76
2021/12/31 03:25:33;;;;;;;40.17;35.75;;;;;;;8.38;100.00;99073.63;2086083;28;20752;-76
2021/12/31 03:26:35;;;;;;;40.58;36.20;;;;;;;8.39;100.00;99076.00;2078088;28;20282;-76
2021/12/31 03:27:36;;;;;;;41.90;37.35;;;;;;;8.41;100.00;99081.03;2086383;28;20691;-76
2021/12/31 03:28:38;;;;;;;40.67;36.30;;;;;;;8.41;100.00;99073.84;2086736;28;20629;-75
2021/12/31 03:29:39;;;;;;;40.47;36.05;;;;;;;8.38;100.00;99071.75;2086237;28;20230;-76
2021/12/31 03:30:41;;;;;;;41.87;37.40;;;;;;;8.35;100.00;99072.34;2077950;28;20227;-76
2021/12/31 03:31:44;;;;;;;41.10;36.70;;;;;;;8.36;100.00;99079.25;2086211;28;21787;-76
2021/12/31 03:32:45;;;;;;;39.50;35.28;;;;;;;8.36;100.00;99073.13;2086424;28;20271;-76
2021/12/31 03:33:47;;;;;;;40.60;36.30;;;;;;;8.37;100.00;99080.03;2077998;28;20227;-76
2021/12/31 03:34:48;;;;;;;39.78;35.58;;;;;;;8.37;100.00;99080.03;2078038;28;20737;-76
2021/12/31 03:35:49;;;;;;;40.60;36.20;;;;;;;8.39;100.00;99075.22;2086352;28;20603;-76
2021/12/31 03:36:50;;;;;;;40.03;35.75;;;;;;;8.39;100.00;99073.34;2086854;28;20233;-76
2021/12/31 03:37:54;;;;;;;40.00;35.70;;;;;;;8.38;100.00;99077.09;2086118;28;20249;-76
2021/12/31 03:38:57;;;;;;;41.90;36.90;;;;;;;8.45;100.00;99076.75;2077861;28;20249;-76
2021/12/31 03:39:58;;;;;;;39.60;35.50;;;;;;;8.47;100.00;99082.59;2086075;28;20241;-76
2021/12/31 03:40:59;;;;;;;38.47;34.27;;;;;;;8.47;100.00;99079.91;2086244;28;20276;-76
2021/12/31 03:42:00;;;;;;;39.95;34.90;;;;;;;8.45;100.00;99082.88;2077997;28;20227;-76
2021/12/31 03:43:02;;;;;;;42.60;38.17;;;;;;;8.44;100.00;99080.50;2077947;28;20306;-76
2021/12/31 03:44:06;;;;;;;41.63;37.17;;;;;;;8.45;100.00;99082.88;2077945;28;20219;-76
2021/12/31 03:45:07;;;;;;;41.50;36.97;;;;;;;8.42;100.00;99077.31;2086100;28;20227;-76
2021/12/31 03:46:11;;;;;;;40.08;35.95;;;;;;;8.44;100.00;99088.47;2086576;28;20230;-75
2021/12/31 03:47:13;;;;;;;40.83;35.47;;;;;;;8.39;100.00;99075.22;2086906;28;20560;-76
2021/12/31 03:48:14;;;;;;;39.28;35.05;;;;;;;8.41;100.00;99081.03;2086941;28;20685;-75
2021/12/31 03:49:15;;;;;;;38.33;34.13;;;;;;;8.43;100.00;99085.03;2086139;28;20222;-75
2021/12/31 03:50:17;;;;;;;38.73;34.10;;;;;;;8.44;100.00;99081.28;2086271;28;20306;-75
2021/12/31 03:51:18;;;;;;;39.92;35.70;;;;;;;8.42;100.00;99079.97;2078081;28;20224;-75
2021/12/31 03:52:19;;;;;;;37.33;33.42;;;;;;;8.39;100.00;99077.88;2086139;28;20226;-75
2021/12/31 03:53:23;;;;;;;37.90;33.80;;;;;;;8.42;100.00;99075.44;2086818;28;20234;-75
2021/12/31 03:54:25;;;;;;;39.22;35.28;;;;;;;8.49;100.00;99080.44;2085718;28;20773;-76
2021/12/31 03:55:27;;;;;;;39.97;34.90;;;;;;;8.47;100.00;99075.41;2077839;28;20721;-76
2021/12/31 03:56:31;;;;;;;38.63;34.55;;;;;;;8.44;100.00;99083.94;2086155;28;20226;-75
2021/12/31 03:57:33;;;;;;;38.67;34.65;;;;;;;8.46;100.00;99083.66;2078265;28;20306;-75
2021/12/31 03:58:33;;;;;;;38.47;34.58;;;;;;;8.43;100.00;99098.31;2086105;28;20227;-75
2021/12/31 03:59:36;;;;;;;39.10;34.87;;;;;;;8.40;100.00;99087.44;2086054;28;20388;-75
2021/12/31 04:00:37;;;;;;;38.40;34.40;;;;;;;8.43;100.00;99086.88;2086499;28;20226;-75
2021/12/31 04:01:40;;;;;;;38.33;34.35;;;;;;;8.39;100.00;99089.31;2085668;28;20681;-76
2021/12/31 04:02:41;;;;;;;37.15;32.00;;;;;;;8.44;100.00;99091.13;2086105;28;20234;-76
2021/12/31 04:03:42;;;;;;;35.50;31.80;;;;;;;8.43;100.00;99079.72;2086149;28;20318;-75
2021/12/31 04:04:43;;;;;;;37.80;33.63;;;;;;;8.42;100.00;99091.38;2077865;28;20211;-75
2021/12/31 04:05:45;;;;;;;36.33;32.43;;;;;;;8.38;100.00;99087.72;2086016;28;20223;-75
2021/12/31 04:06:46;;;;;;;37.22;33.20;;;;;;;8.40;100.00;99085.56;2086115;28;20219;-76
2021/12/31 04:07:49;;;;;;;37.03;33.07;;;;;;;8.42;100.00;99080.75;2086538;28;20227;-75
2021/12/31 04:08:51;;;;;;;36.35;32.47;;;;;;;8.43;100.00;99079.72;2086707;28;20559;-76
2021/12/31 04:09:54;;;;;;;37.50;33.35;;;;;;;8.49;100.00;99091.06;2085566;28;20607;-76
2021/12/31 04:10:54;;;;;;;37.38;33.25;;;;;;;8.47;100.00;99082.59;2078045;28;20736;-75
2021/12/31 04:11:56;;;;;;;37.40;33.43;;;;;;;8.50;100.00;99096.09;2085907;28;20647;-76
2021/12/31 04:12:57;;;;;;;37.33;33.33;;;;;;;8.46;100.00;99084.44;2086194;28;20771;-76
2021/12/31 04:14:00;;;;;;;38.50;34.57;;;;;;;8.49;100.00;99086.53;2086920;28;20629;-75
2021/12/31 04:15:01;;;;;;;37.88;33.95;;;;;;;8.48;100.00;99089.47;2086268;28;20722;-76
2021/12/31 04:16:03;;;;;;;38.25;34.00;;;;;;;8.46;100.00;99086.31;2086047;28;20365;-76
2021/12/31 04:17:04;;;;;;;38.70;34.67;;;;;;;8.46;100.00;99094.28;2085852;28;20222;-76
2021/12/31 04:18:05;;;;;;;39.10;35.03;;;;;;;8.42;100.00;99096.69;2086092;28;20227;-75
2021/12/31 04:19:06;;;;;;;37.40;33.20;;;;;;;8.43;100.00;99090.34;2086814;28;20683;-76
2021/12/31 04:20:18;;;;;;;36.07;32.27;;;;;;;8.49;100.00;99099.84;2086480;28;20628;-76
2021/12/31 04:21:22;;;;;;;36.70;32.88;;;;;;;8.50;100.00;99096.09;2086008;28;20293;-75
2021/12/31 04:22:26;;;;;;;37.17;32.13;;;;;;;8.50;100.00;99090.78;2086351;28;20264;-75
2021/12/31 04:23:28;;;;;;;38.25;34.25;;;;;;;8.47;100.00;99101.97;2087575;28;20238;-76
2021/12/31 04:24:51;;;;;;;36.15;32.55;;;;;;;8.52;100.00;99092.38;2079371;28;20322;-76
2021/12/31 04:25:52;;;;;;;36.35;32.58;;;;;;;8.50;100.00;99106.72;2086999;28;20697;-76
2021/12/31 04:26:54;;;;;;;36.80;32.97;;;;;;;8.48;100.00;99092.94;2078937;28;20235;-76
2021/12/31 04:27:54;;;;;;;38.33;33.05;;;;;;;8.52;100.00;99092.38;2087628;28;20227;-76
2021/12/31 04:28:57;;;;;;;34.57;30.83;;;;;;;8.45;100.00;99104.13;2088260;28;20226;-76
2021/12/31 04:29:57;;;;;;;36.08;32.42;;;;;;;8.50;100.00;99112.06;2087639;28;20239;-75
2021/12/31 04:30:59;;;;;;;35.27;31.37;;;;;;;8.49;100.00;99109.69;2087324;28;20601;-76
2021/12/31 04:32:00;;;;;;;33.80;30.25;;;;;;;8.53;100.00;99109.94;2087725;28;20662;-76
2021/12/31 04:33:02;;;;;;;36.47;32.67;;;;;;;8.54;100.00;99103.53;2087487;28;20766;-75
2021/12/31 04:34:06;;;;;;;35.58;31.98;;;;;;;8.54;100.00;99104.31;2088293;28;20226;-75
2021/12/31 04:35:10;;;;;;;32.33;29.00;;;;;;;8.53;100.00;99109.94;2087078;28;20327;-76
2021/12/31 04:36:11;;;;;;;35.00;31.50;;;;;;;8.56;100.00;99125.31;2087470;28;20249;-76
2021/12/31 04:37:12;;;;;;;34.70;31.33;;;;;;;8.54;100.00;99104.31;2087210;28;20237;-76
2021/12/31 04:38:14;;;;;;;34.13;30.73;;;;;;;8.58;100.00;99112.53;2087483;28;20225;-76
2021/12/31 04:39:15;;;;;;;34.53;31.02;;;;;;;8.57;100.00;99119.72;2088192;28;20706;-76
2021/12/31 04:40:16;;;;;;;32.40;29.30;;;;;;;8.58;100.00;99105.34;2088258;28;20241;-76
2021/12/31 04:41:19;;;;;;;34.03;30.63;;;;;;;8.62;100.00;99108.25;2087580;28;20218;-75
2021/12/31 04:42:21;;;;;;;34.60;31.20;;;;;;;8.63;100.00;99110.63;2087456;28;20305;-76
2021/12/31 04:43:22;;;;;;;33.65;30.42;;;;;;;8.61;100.00;99126.06;2087919;28;20658;-76
2021/12/31 04:44:24;;;;;;;33.27;30.13;;;;;;;8.64;100.00;99108.75;2088144;28;20577;-76
2021/12/31 04:45:25;;;;;;;34.83;31.45;;;;;;;8.63;100.00;99102.63;2087233;28;20223;-76
2021/12/31 04:46:26;;;;;;;32.03;29.02;;;;;;;8.64;100.00;99108.75;2087476;28;20310;-76
2021/12/31 04:47:28;;;;;;;30.83;27.83;;;;;;;8.62;100.00;99102.91;2088125;28;20234;-76
2021/12/31 04:48:29;;;;;;;30.50;27.60;;;;;;;8.65;100.00;99103.13;2087053;28;20223;-76